sensor_id;sensor_type;location;lat;lon;timestamp;temperature;humidity
48686;DHT22;34485;51.536;3.816;2022-10-31T00:01:12;12.10;99.90
48686;DHT22;34485;51.536;3.816;2022-10-31T00:03:38;12.10;99.90
48686;DHT22;34485;51.536;3.816;2022-10-31T00:06:04;12.00;99.90
48686;DHT22;34485;51.536;3.816;2022-10-31T00:08:29;12.00;99.90
48686;DHT22;34485;51.536;3.816;2022-10-31T00:10:55;11.90;99.90
48686;DHT22;34485;51.536;3.816;2022-10-31T00:13:20;11.90;99.90
48686;DHT22;34485;51.536;3.816;2022-10-31T00:15:46;11.90;99.90
48686;DHT22;34485;51.536;3.816;2022-10-31T00:18:11;11.90;99.90
48686;DHT22;34485;51.536;3.816;2022-10-31T00:20:37;11.80;99.90
48686;DHT22;34485;51.536;3.816;2022-10-31T00:23:04;11.80;99.90
48686;DHT22;34485;51.536;3.816;2022-10-31T00:25:35;11.70;99.90
48686;DHT22;34485;51.536;3.816;2022-10-31T00:28:02;11.70;99.90
48686;DHT22;34485;51.536;3.816;2022-10-31T00:30:27;11.60;99.90
48686;DHT22;34485;51.536;3.816;2022-10-31T00:32:53;11.60;99.90
48686;DHT22;34485;51.536;3.816;2022-10-31T00:35:19;11.50;99.90
48686;DHT22;34485;51.536;3.816;2022-10-31T00:37:44;11.50;99.90
48686;DHT22;34485;51.536;3.816;2022-10-31T00:40:10;11.50;99.90
48686;DHT22;34485;51.536;3.816;2022-10-31T00:42:36;11.50;99.90
48686;DHT22;34485;51.536;3.816;2022-10-31T00:45:02;11.40;99.90
48686;DHT22;34485;51.536;3.816;2022-10-31T00:47:27;11.40;99.90
48686;DHT22;34485;51.536;3.816;2022-10-31T00:49:53;11.50;99.90
48686;DHT22;34485;51.536;3.816;2022-10-31T00:52:18;11.40;99.90
48686;DHT22;34485;51.536;3.816;2022-10-31T00:54:44;11.40;99.90
48686;DHT22;34485;51.536;3.816;2022-10-31T00:57:09;11.40;99.90
48686;DHT22;34485;51.536;3.816;2022-10-31T00:59:35;11.40;99.90
48686;DHT22;34485;51.536;3.816;2022-10-31T01:02:01;11.40;99.90
48686;DHT22;34485;51.536;3.816;2022-10-31T01:04:26;11.40;99.90
48686;DHT22;34485;51.536;3.816;2022-10-31T01:06:52;11.30;99.90
48686;DHT22;34485;51.536;3.816;2022-10-31T01:09:17;11.30;99.90
48686;DHT22;34485;51.536;3.816;2022-10-31T01:11:43;11.30;99.90
48686;DHT22;34485;51.536;3.816;2022-10-31T01:14:09;11.30;99.90
48686;DHT22;34485;51.536;3.816;2022-10-31T01:16:35;11.20;99.90
48686;DHT22;34485;51.536;3.816;2022-10-31T01:19:00;11.20;99.90
48686;DHT22;34485;51.536;3.816;2022-10-31T01:21:28;11.20;99.90
48686;DHT22;34485;51.536;3.816;2022-10-31T01:23:54;11.20;99.90
48686;DHT22;34485;51.536;3.816;2022-10-31T01:26:25;11.30;99.90
48686;DHT22;34485;51.536;3.816;2022-10-31T01:31:30;11.20;99.90
48686;DHT22;34485;51.536;3.816;2022-10-31T01:33:56;11.20;99.90
48686;DHT22;34485;51.536;3.816;2022-10-31T01:36:28;11.20;99.90
48686;DHT22;34485;51.536;3.816;2022-10-31T01:38:56;11.10;99.90
48686;DHT22;34485;51.536;3.816;2022-10-31T01:41:24;11.10;99.90
48686;DHT22;34485;51.536;3.816;2022-10-31T01:43:54;11.10;99.90
48686;DHT22;34485;51.536;3.816;2022-10-31T01:46:27;11.00;99.90
48686;DHT22;34485;51.536;3.816;2022-10-31T01:48:55;11.00;99.90
48686;DHT22;34485;51.536;3.816;2022-10-31T01:51:26;10.90;99.90
48686;DHT22;34485;51.536;3.816;2022-10-31T01:53:57;10.80;99.90
48686;DHT22;34485;51.536;3.816;2022-10-31T01:56:23;10.80;99.90
48686;DHT22;34485;51.536;3.816;2022-10-31T01:58:49;10.70;99.90
48686;DHT22;34485;51.536;3.816;2022-10-31T02:01:16;10.70;99.90
48686;DHT22;34485;51.536;3.816;2022-10-31T02:03:42;10.70;99.90
48686;DHT22;34485;51.536;3.816;2022-10-31T02:06:17;10.70;99.90
48686;DHT22;34485;51.536;3.816;2022-10-31T02:08:44;10.70;99.90
48686;DHT22;34485;51.536;3.816;2022-10-31T02:11:10;10.70;99.90
48686;DHT22;34485;51.536;3.816;2022-10-31T02:13:37;10.80;99.90
48686;DHT22;34485;51.536;3.816;2022-10-31T02:16:03;10.70;99.90
48686;DHT22;34485;51.536;3.816;2022-10-31T02:18:30;10.80;99.90
48686;DHT22;34485;51.536;3.816;2022-10-31T02:21:09;10.80;99.90
48686;DHT22;34485;51.536;3.816;2022-10-31T02:32:27;10.90;99.90
48686;DHT22;34485;51.536;3.816;2022-10-31T02:35:17;10.90;99.90
48686;DHT22;34485;51.536;3.816;2022-10-31T02:38:16;10.90;99.90
48686;DHT22;34485;51.536;3.816;2022-10-31T02:43:28;10.80;99.90
48686;DHT22;34485;51.536;3.816;2022-10-31T02:48:28;10.80;99.90
48686;DHT22;34485;51.536;3.816;2022-10-31T02:50:59;10.80;99.90
48686;DHT22;34485;51.536;3.816;2022-10-31T02:53:25;10.80;99.90
48686;DHT22;34485;51.536;3.816;2022-10-31T02:55:58;10.80;99.90
48686;DHT22;34485;51.536;3.816;2022-10-31T02:58:27;10.80;99.90
48686;DHT22;34485;51.536;3.816;2022-10-31T03:01:13;10.80;99.90
48686;DHT22;34485;51.536;3.816;2022-10-31T03:03:57;10.80;99.90
48686;DHT22;34485;51.536;3.816;2022-10-31T03:09:17;10.80;99.90
48686;DHT22;34485;51.536;3.816;2022-10-31T03:14:26;10.90;99.90
48686;DHT22;34485;51.536;3.816;2022-10-31T03:16:54;10.90;99.90
48686;DHT22;34485;51.536;3.816;2022-10-31T03:19:51;10.90;99.90
48686;DHT22;34485;51.536;3.816;2022-10-31T03:22:28;10.90;99.90
48686;DHT22;34485;51.536;3.816;2022-10-31T03:24:55;10.90;99.90
48686;DHT22;34485;51.536;3.816;2022-10-31T03:27:24;10.80;99.90
48686;DHT22;34485;51.536;3.816;2022-10-31T03:29:54;10.80;99.90
48686;DHT22;34485;51.536;3.816;2022-10-31T03:35:08;10.70;99.90
48686;DHT22;34485;51.536;3.816;2022-10-31T03:37:35;10.70;99.90
48686;DHT22;34485;51.536;3.816;2022-10-31T03:40:03;10.80;99.90
48686;DHT22;34485;51.536;3.816;2022-10-31T03:42:31;10.70;99.90
48686;DHT22;34485;51.536;3.816;2022-10-31T03:45:15;10.80;99.90
48686;DHT22;34485;51.536;3.816;2022-10-31T03:47:44;10.70;99.90
48686;DHT22;34485;51.536;3.816;2022-10-31T03:50:11;10.70;99.90
48686;DHT22;34485;51.536;3.816;2022-10-31T03:52:49;10.70;99.90
48686;DHT22;34485;51.536;3.816;2022-10-31T03:58:17;10.60;99.90
48686;DHT22;34485;51.536;3.816;2022-10-31T04:00:45;10.60;99.90
48686;DHT22;34485;51.536;3.816;2022-10-31T04:03:17;10.60;99.90
48686;DHT22;34485;51.536;3.816;2022-10-31T04:05:46;10.60;99.90
48686;DHT22;34485;51.536;3.816;2022-10-31T04:08:16;10.50;99.90
48686;DHT22;34485;51.536;3.816;2022-10-31T04:10:44;10.50;99.90
48686;DHT22;34485;51.536;3.816;2022-10-31T04:13:14;10.60;99.90
48686;DHT22;34485;51.536;3.816;2022-10-31T04:15:42;10.60;99.90
48686;DHT22;34485;51.536;3.816;2022-10-31T04:18:08;10.60;99.90
48686;DHT22;34485;51.536;3.816;2022-10-31T04:20:40;10.60;99.90
48686;DHT22;34485;51.536;3.816;2022-10-31T04:23:17;10.60;99.90
48686;DHT22;34485;51.536;3.816;2022-10-31T04:25:43;10.70;99.90
48686;DHT22;34485;51.536;3.816;2022-10-31T04:28:09;10.70;99.90
48686;DHT22;34485;51.536;3.816;2022-10-31T04:30:34;10.60;99.90
48686;DHT22;34485;51.536;3.816;2022-10-31T04:33:00;10.70;99.90
48686;DHT22;34485;51.536;3.816;2022-10-31T04:35:25;10.70;99.90
48686;DHT22;34485;51.536;3.816;2022-10-31T04:37:51;10.70;99.90
48686;DHT22;34485;51.536;3.816;2022-10-31T04:40:16;10.70;99.90
48686;DHT22;34485;51.536;3.816;2022-10-31T04:42:42;10.70;99.90
48686;DHT22;34485;51.536;3.816;2022-10-31T04:45:08;10.70;99.90
48686;DHT22;34485;51.536;3.816;2022-10-31T04:47:34;10.70;99.90
48686;DHT22;34485;51.536;3.816;2022-10-31T04:50:00;10.60;99.90
48686;DHT22;34485;51.536;3.816;2022-10-31T04:52:25;10.60;99.90
48686;DHT22;34485;51.536;3.816;2022-10-31T04:54:51;10.60;99.90
48686;DHT22;34485;51.536;3.816;2022-10-31T04:57:16;10.60;99.90
48686;DHT22;34485;51.536;3.816;2022-10-31T04:59:42;10.60;99.90
48686;DHT22;34485;51.536;3.816;2022-10-31T05:02:07;10.60;99.90
48686;DHT22;34485;51.536;3.816;2022-10-31T05:04:33;10.60;99.90
48686;DHT22;34485;51.536;3.816;2022-10-31T05:06:59;10.50;99.90
48686;DHT22;34485;51.536;3.816;2022-10-31T05:09:24;10.50;99.90
48686;DHT22;34485;51.536;3.816;2022-10-31T05:11:50;10.50;99.90
48686;DHT22;34485;51.536;3.816;2022-10-31T05:14:15;10.50;99.90
48686;DHT22;34485;51.536;3.816;2022-10-31T05:16:41;10.50;99.90
48686;DHT22;34485;51.536;3.816;2022-10-31T05:19:06;10.50;99.90
48686;DHT22;34485;51.536;3.816;2022-10-31T05:21:32;10.50;99.90
48686;DHT22;34485;51.536;3.816;2022-10-31T05:23:57;10.50;99.90
48686;DHT22;34485;51.536;3.816;2022-10-31T05:26:23;10.40;99.90
48686;DHT22;34485;51.536;3.816;2022-10-31T05:28:49;10.30;99.90
48686;DHT22;34485;51.536;3.816;2022-10-31T05:31:15;10.20;99.90
48686;DHT22;34485;51.536;3.816;2022-10-31T05:33:40;10.00;99.90
48686;DHT22;34485;51.536;3.816;2022-10-31T05:36:06;9.90;99.90
48686;DHT22;34485;51.536;3.816;2022-10-31T05:38:32;9.90;99.90
48686;DHT22;34485;51.536;3.816;2022-10-31T05:40:57;10.00;99.90
48686;DHT22;34485;51.536;3.816;2022-10-31T05:43:25;10.10;99.90
48686;DHT22;34485;51.536;3.816;2022-10-31T05:45:55;10.30;99.90
48686;DHT22;34485;51.536;3.816;2022-10-31T05:48:21;10.30;99.90
48686;DHT22;34485;51.536;3.816;2022-10-31T05:50:48;10.40;99.90
48686;DHT22;34485;51.536;3.816;2022-10-31T05:53:14;10.40;99.90
48686;DHT22;34485;51.536;3.816;2022-10-31T05:55:39;10.40;99.90
48686;DHT22;34485;51.536;3.816;2022-10-31T05:58:08;10.50;99.90
48686;DHT22;34485;51.536;3.816;2022-10-31T06:00:34;10.60;99.90
48686;DHT22;34485;51.536;3.816;2022-10-31T06:03:05;10.70;99.90
48686;DHT22;34485;51.536;3.816;2022-10-31T06:05:31;10.80;99.90
48686;DHT22;34485;51.536;3.816;2022-10-31T06:07:57;10.80;99.90
48686;DHT22;34485;51.536;3.816;2022-10-31T06:10:23;10.70;99.90
48686;DHT22;34485;51.536;3.816;2022-10-31T06:12:49;10.70;99.90
48686;DHT22;34485;51.536;3.816;2022-10-31T06:15:15;10.70;99.90
48686;DHT22;34485;51.536;3.816;2022-10-31T06:17:41;10.70;99.90
48686;DHT22;34485;51.536;3.816;2022-10-31T06:20:07;10.70;99.90
48686;DHT22;34485;51.536;3.816;2022-10-31T06:22:33;10.70;99.90
48686;DHT22;34485;51.536;3.816;2022-10-31T06:24:59;10.80;99.90
48686;DHT22;34485;51.536;3.816;2022-10-31T06:27:25;10.80;99.90
48686;DHT22;34485;51.536;3.816;2022-10-31T06:29:51;10.80;99.90
48686;DHT22;34485;51.536;3.816;2022-10-31T06:32:17;10.80;99.90
48686;DHT22;34485;51.536;3.816;2022-10-31T06:34:42;10.80;99.90
48686;DHT22;34485;51.536;3.816;2022-10-31T06:37:11;10.80;99.90
48686;DHT22;34485;51.536;3.816;2022-10-31T06:39:36;10.70;99.90
48686;DHT22;34485;51.536;3.816;2022-10-31T06:42:03;10.80;99.90
48686;DHT22;34485;51.536;3.816;2022-10-31T06:44:29;10.80;99.90
48686;DHT22;34485;51.536;3.816;2022-10-31T06:46:55;10.80;99.90
48686;DHT22;34485;51.536;3.816;2022-10-31T06:49:20;10.80;99.90
48686;DHT22;34485;51.536;3.816;2022-10-31T06:51:49;10.80;99.90
48686;DHT22;34485;51.536;3.816;2022-10-31T06:54:15;10.80;99.90
48686;DHT22;34485;51.536;3.816;2022-10-31T06:56:41;10.80;99.90
48686;DHT22;34485;51.536;3.816;2022-10-31T06:59:07;10.80;99.90
48686;DHT22;34485;51.536;3.816;2022-10-31T07:01:32;10.80;99.90
48686;DHT22;34485;51.536;3.816;2022-10-31T07:03:58;10.80;99.90
48686;DHT22;34485;51.536;3.816;2022-10-31T07:06:23;10.90;99.90
48686;DHT22;34485;51.536;3.816;2022-10-31T07:08:50;10.80;99.90
48686;DHT22;34485;51.536;3.816;2022-10-31T07:11:15;10.80;99.90
48686;DHT22;34485;51.536;3.816;2022-10-31T07:13:41;10.80;99.90
48686;DHT22;34485;51.536;3.816;2022-10-31T07:16:07;10.70;99.90
48686;DHT22;34485;51.536;3.816;2022-10-31T07:18:33;10.70;99.90
48686;DHT22;34485;51.536;3.816;2022-10-31T07:20:59;10.70;99.90
48686;DHT22;34485;51.536;3.816;2022-10-31T07:23:25;10.70;99.90
48686;DHT22;34485;51.536;3.816;2022-10-31T07:25:55;10.70;99.90
48686;DHT22;34485;51.536;3.816;2022-10-31T07:28:21;10.70;99.90
48686;DHT22;34485;51.536;3.816;2022-10-31T07:30:50;10.80;99.90
48686;DHT22;34485;51.536;3.816;2022-10-31T07:33:16;10.80;99.90
48686;DHT22;34485;51.536;3.816;2022-10-31T07:35:42;11.00;99.90
48686;DHT22;34485;51.536;3.816;2022-10-31T07:38:09;11.00;99.90
48686;DHT22;34485;51.536;3.816;2022-10-31T07:40:35;11.10;99.90
48686;DHT22;34485;51.536;3.816;2022-10-31T07:43:01;11.10;99.90
48686;DHT22;34485;51.536;3.816;2022-10-31T07:45:27;11.10;99.90
48686;DHT22;34485;51.536;3.816;2022-10-31T07:47:53;11.20;99.90
48686;DHT22;34485;51.536;3.816;2022-10-31T07:50:21;11.20;99.90
48686;DHT22;34485;51.536;3.816;2022-10-31T07:52:47;11.20;99.90
48686;DHT22;34485;51.536;3.816;2022-10-31T07:55:13;11.30;99.90
48686;DHT22;34485;51.536;3.816;2022-10-31T07:57:39;11.30;99.90
48686;DHT22;34485;51.536;3.816;2022-10-31T08:00:07;11.30;99.90
48686;DHT22;34485;51.536;3.816;2022-10-31T08:02:33;11.30;99.90
48686;DHT22;34485;51.536;3.816;2022-10-31T08:04:59;11.30;99.90
48686;DHT22;34485;51.536;3.816;2022-10-31T08:07:25;11.30;99.90
48686;DHT22;34485;51.536;3.816;2022-10-31T08:09:51;11.40;99.90
48686;DHT22;34485;51.536;3.816;2022-10-31T08:12:17;11.60;99.90
48686;DHT22;34485;51.536;3.816;2022-10-31T08:14:43;11.90;99.90
48686;DHT22;34485;51.536;3.816;2022-10-31T08:17:10;12.40;99.90
48686;DHT22;34485;51.536;3.816;2022-10-31T08:19:36;12.90;99.90
48686;DHT22;34485;51.536;3.816;2022-10-31T08:22:01;12.70;99.90
48686;DHT22;34485;51.536;3.816;2022-10-31T08:24:27;12.50;99.90
48686;DHT22;34485;51.536;3.816;2022-10-31T08:26:52;12.40;99.90
48686;DHT22;34485;51.536;3.816;2022-10-31T08:29:18;12.30;99.90
48686;DHT22;34485;51.536;3.816;2022-10-31T08:31:44;12.50;99.90
48686;DHT22;34485;51.536;3.816;2022-10-31T08:34:09;12.90;99.90
48686;DHT22;34485;51.536;3.816;2022-10-31T08:36:35;12.90;99.90
48686;DHT22;34485;51.536;3.816;2022-10-31T08:39:01;12.90;99.90
48686;DHT22;34485;51.536;3.816;2022-10-31T08:41:26;12.80;99.90
48686;DHT22;34485;51.536;3.816;2022-10-31T08:43:52;12.90;99.90
48686;DHT22;34485;51.536;3.816;2022-10-31T08:46:18;13.10;99.90
48686;DHT22;34485;51.536;3.816;2022-10-31T08:48:43;13.50;99.90
48686;DHT22;34485;51.536;3.816;2022-10-31T08:51:10;13.70;99.90
48686;DHT22;34485;51.536;3.816;2022-10-31T08:53:36;13.90;99.90
48686;DHT22;34485;51.536;3.816;2022-10-31T08:56:02;14.40;99.90
48686;DHT22;34485;51.536;3.816;2022-10-31T08:58:27;14.90;99.90
48686;DHT22;34485;51.536;3.816;2022-10-31T09:00:54;15.50;99.90
48686;DHT22;34485;51.536;3.816;2022-10-31T09:03:24;16.10;99.90
48686;DHT22;34485;51.536;3.816;2022-10-31T09:05:55;16.60;99.90
48686;DHT22;34485;51.536;3.816;2022-10-31T09:08:21;16.50;99.90
48686;DHT22;34485;51.536;3.816;2022-10-31T09:10:47;16.50;99.90
48686;DHT22;34485;51.536;3.816;2022-10-31T09:13:16;16.40;99.90
48686;DHT22;34485;51.536;3.816;2022-10-31T09:15:44;16.10;99.90
48686;DHT22;34485;51.536;3.816;2022-10-31T09:18:11;15.90;99.90
48686;DHT22;34485;51.536;3.816;2022-10-31T09:20:38;15.90;99.90
48686;DHT22;34485;51.536;3.816;2022-10-31T09:23:06;15.90;99.90
48686;DHT22;34485;51.536;3.816;2022-10-31T09:25:33;15.80;99.90
48686;DHT22;34485;51.536;3.816;2022-10-31T09:28:01;15.70;99.90
48686;DHT22;34485;51.536;3.816;2022-10-31T09:30:28;15.50;99.90
48686;DHT22;34485;51.536;3.816;2022-10-31T09:33:03;15.40;99.90
48686;DHT22;34485;51.536;3.816;2022-10-31T09:35:29;15.40;99.90
48686;DHT22;34485;51.536;3.816;2022-10-31T09:37:55;15.50;99.90
48686;DHT22;34485;51.536;3.816;2022-10-31T09:40:22;15.70;99.90
48686;DHT22;34485;51.536;3.816;2022-10-31T09:43:03;16.00;99.90
48686;DHT22;34485;51.536;3.816;2022-10-31T09:45:54;16.20;99.90
48686;DHT22;34485;51.536;3.816;2022-10-31T09:48:27;16.20;99.90
48686;DHT22;34485;51.536;3.816;2022-10-31T09:51:00;15.90;99.90
48686;DHT22;34485;51.536;3.816;2022-10-31T09:55:58;15.60;99.90
48686;DHT22;34485;51.536;3.816;2022-10-31T09:58:27;15.40;99.90
48686;DHT22;34485;51.536;3.816;2022-10-31T10:00:56;15.20;99.90
48686;DHT22;34485;51.536;3.816;2022-10-31T10:03:40;15.20;99.90
48686;DHT22;34485;51.536;3.816;2022-10-31T10:06:27;15.30;99.90
48686;DHT22;34485;51.536;3.816;2022-10-31T10:08:55;15.30;99.90
48686;DHT22;34485;51.536;3.816;2022-10-31T10:28:03;16.30;99.90
48686;DHT22;34485;51.536;3.816;2022-10-31T10:30:47;16.60;99.90
48686;DHT22;34485;51.536;3.816;2022-10-31T10:41:00;17.10;99.90
48686;DHT22;34485;51.536;3.816;2022-10-31T10:43:33;17.10;99.90
48686;DHT22;34485;51.536;3.816;2022-10-31T10:52:06;16.40;99.90
48686;DHT22;34485;51.536;3.816;2022-10-31T10:54:42;16.20;99.90
48686;DHT22;34485;51.536;3.816;2022-10-31T11:00:19;16.10;99.90
48686;DHT22;34485;51.536;3.816;2022-10-31T11:02:45;16.10;99.90
48686;DHT22;34485;51.536;3.816;2022-10-31T11:05:25;16.10;99.90
48686;DHT22;34485;51.536;3.816;2022-10-31T11:07:51;16.00;99.90
48686;DHT22;34485;51.536;3.816;2022-10-31T11:10:17;15.90;99.90
48686;DHT22;34485;51.536;3.816;2022-10-31T11:12:45;15.90;99.90
48686;DHT22;34485;51.536;3.816;2022-10-31T11:15:23;15.90;99.90
48686;DHT22;34485;51.536;3.816;2022-10-31T11:17:52;15.90;99.90
48686;DHT22;34485;51.536;3.816;2022-10-31T11:22:48;15.90;99.90
48686;DHT22;34485;51.536;3.816;2022-10-31T11:27:45;16.00;99.90
48686;DHT22;34485;51.536;3.816;2022-10-31T11:30:13;16.00;99.90
48686;DHT22;34485;51.536;3.816;2022-10-31T11:32:49;16.00;99.90
48686;DHT22;34485;51.536;3.816;2022-10-31T11:35:18;16.10;99.90
48686;DHT22;34485;51.536;3.816;2022-10-31T11:37:46;16.20;99.90
48686;DHT22;34485;51.536;3.816;2022-10-31T11:40:18;16.20;99.90
48686;DHT22;34485;51.536;3.816;2022-10-31T11:42:45;16.30;99.90
48686;DHT22;34485;51.536;3.816;2022-10-31T11:47:50;16.50;99.90
48686;DHT22;34485;51.536;3.816;2022-10-31T11:50:22;16.80;99.90
48686;DHT22;34485;51.536;3.816;2022-10-31T11:52:49;17.00;99.90
48686;DHT22;34485;51.536;3.816;2022-10-31T11:55:29;16.90;99.90
48686;DHT22;34485;51.536;3.816;2022-10-31T11:57:55;16.90;99.90
48686;DHT22;34485;51.536;3.816;2022-10-31T12:00:28;16.90;99.90
48686;DHT22;34485;51.536;3.816;2022-10-31T12:03:19;16.90;99.90
48686;DHT22;34485;51.536;3.816;2022-10-31T12:05:49;17.00;99.90
48686;DHT22;34485;51.536;3.816;2022-10-31T12:08:17;17.00;99.90
48686;DHT22;34485;51.536;3.816;2022-10-31T12:10:57;16.80;99.90
48686;DHT22;34485;51.536;3.816;2022-10-31T12:19:22;16.40;99.90
48686;DHT22;34485;51.536;3.816;2022-10-31T12:22:04;16.40;99.90
48686;DHT22;34485;51.536;3.816;2022-10-31T12:25:04;16.40;99.90
48686;DHT22;34485;51.536;3.816;2022-10-31T12:38:30;16.30;99.90
48686;DHT22;34485;51.536;3.816;2022-10-31T12:41:03;16.40;99.90
48686;DHT22;34485;51.536;3.816;2022-10-31T12:43:56;16.40;99.90
48686;DHT22;34485;51.536;3.816;2022-10-31T12:57:31;16.20;99.90
48686;DHT22;34485;51.536;3.816;2022-10-31T13:00:18;16.20;99.90
48686;DHT22;34485;51.536;3.816;2022-10-31T13:02:51;16.20;99.90
48686;DHT22;34485;51.536;3.816;2022-10-31T13:05:37;16.10;99.90
48686;DHT22;34485;51.536;3.816;2022-10-31T13:08:28;16.00;99.90
48686;DHT22;34485;51.536;3.816;2022-10-31T13:11:17;16.00;99.90
48686;DHT22;34485;51.536;3.816;2022-10-31T13:13:55;15.90;99.90
48686;DHT22;34485;51.536;3.816;2022-10-31T13:16:25;15.90;99.90
48686;DHT22;34485;51.536;3.816;2022-10-31T13:19:10;15.90;99.90
48686;DHT22;34485;51.536;3.816;2022-10-31T13:27:27;15.90;99.90
48686;DHT22;34485;51.536;3.816;2022-10-31T13:30:14;15.80;99.90
48686;DHT22;34485;51.536;3.816;2022-10-31T13:33:07;15.90;99.90
48686;DHT22;34485;51.536;3.816;2022-10-31T13:46:34;16.00;99.90
48686;DHT22;34485;51.536;3.816;2022-10-31T13:49:00;15.90;99.90
48686;DHT22;34485;51.536;3.816;2022-10-31T13:51:28;16.00;99.90
48686;DHT22;34485;51.536;3.816;2022-10-31T13:56:32;16.00;99.90
48686;DHT22;34485;51.536;3.816;2022-10-31T14:01:26;16.00;99.90
48686;DHT22;34485;51.536;3.816;2022-10-31T14:04:01;16.00;99.90
48686;DHT22;34485;51.536;3.816;2022-10-31T14:06:37;16.00;99.90
48686;DHT22;34485;51.536;3.816;2022-10-31T14:09:03;16.00;99.90
48686;DHT22;34485;51.536;3.816;2022-10-31T14:11:29;16.00;99.90
48686;DHT22;34485;51.536;3.816;2022-10-31T14:13:57;16.10;99.90
48686;DHT22;34485;51.536;3.816;2022-10-31T14:16:31;16.20;99.90
48686;DHT22;34485;51.536;3.816;2022-10-31T14:19:01;16.20;99.90
48686;DHT22;34485;51.536;3.816;2022-10-31T14:21:29;16.20;99.90
48686;DHT22;34485;51.536;3.816;2022-10-31T14:23:56;16.10;99.90
48686;DHT22;34485;51.536;3.816;2022-10-31T14:31:42;16.20;99.90
48686;DHT22;34485;51.536;3.816;2022-10-31T14:50:53;16.20;99.90
48686;DHT22;34485;51.536;3.816;2022-10-31T14:53:29;16.20;99.90
48686;DHT22;34485;51.536;3.816;2022-10-31T14:55:56;16.20;99.90
48686;DHT22;34485;51.536;3.816;2022-10-31T14:58:28;16.20;99.90
48686;DHT22;34485;51.536;3.816;2022-10-31T15:00:56;16.20;99.90
48686;DHT22;34485;51.536;3.816;2022-10-31T15:03:30;16.20;99.90
48686;DHT22;34485;51.536;3.816;2022-10-31T15:06:00;16.20;99.90
48686;DHT22;34485;51.536;3.816;2022-10-31T15:08:34;16.20;99.90
48686;DHT22;34485;51.536;3.816;2022-10-31T15:11:10;16.20;99.90
48686;DHT22;34485;51.536;3.816;2022-10-31T15:16:15;16.10;99.90
48686;DHT22;34485;51.536;3.816;2022-10-31T15:18:54;16.10;99.90
48686;DHT22;34485;51.536;3.816;2022-10-31T15:21:23;16.10;99.90
48686;DHT22;34485;51.536;3.816;2022-10-31T15:23:51;16.10;99.90
48686;DHT22;34485;51.536;3.816;2022-10-31T15:26:20;16.00;99.90
48686;DHT22;34485;51.536;3.816;2022-10-31T15:28:57;16.00;99.90
48686;DHT22;34485;51.536;3.816;2022-10-31T15:31:23;15.90;99.90
48686;DHT22;34485;51.536;3.816;2022-10-31T15:33:49;15.90;99.90
48686;DHT22;34485;51.536;3.816;2022-10-31T15:36:20;15.90;99.90
48686;DHT22;34485;51.536;3.816;2022-10-31T15:38:46;15.90;99.90
48686;DHT22;34485;51.536;3.816;2022-10-31T15:41:32;15.80;99.90
48686;DHT22;34485;51.536;3.816;2022-10-31T15:44:14;15.80;99.90
48686;DHT22;34485;51.536;3.816;2022-10-31T15:46:40;15.80;99.90
48686;DHT22;34485;51.536;3.816;2022-10-31T15:49:19;15.80;99.90
48686;DHT22;34485;51.536;3.816;2022-10-31T15:51:48;15.70;99.90
48686;DHT22;34485;51.536;3.816;2022-10-31T15:54:14;15.70;99.90
48686;DHT22;34485;51.536;3.816;2022-10-31T15:56:43;15.60;99.90
48686;DHT22;34485;51.536;3.816;2022-10-31T15:59:19;15.60;99.90
48686;DHT22;34485;51.536;3.816;2022-10-31T16:02:02;15.60;99.90
48686;DHT22;34485;51.536;3.816;2022-10-31T16:04:28;15.50;99.90
48686;DHT22;34485;51.536;3.816;2022-10-31T16:07:16;15.40;99.90
48686;DHT22;34485;51.536;3.816;2022-10-31T16:09:55;15.40;99.90
48686;DHT22;34485;51.536;3.816;2022-10-31T16:12:22;15.30;99.90
48686;DHT22;34485;51.536;3.816;2022-10-31T16:14:48;15.30;99.90
48686;DHT22;34485;51.536;3.816;2022-10-31T16:17:17;15.20;99.90
48686;DHT22;34485;51.536;3.816;2022-10-31T16:20:02;15.20;99.90
48686;DHT22;34485;51.536;3.816;2022-10-31T16:22:35;15.20;99.90
48686;DHT22;34485;51.536;3.816;2022-10-31T16:25:24;15.10;99.90
48686;DHT22;34485;51.536;3.816;2022-10-31T16:27:52;15.00;99.90
48686;DHT22;34485;51.536;3.816;2022-10-31T16:30:30;15.00;99.90
48686;DHT22;34485;51.536;3.816;2022-10-31T16:33:00;14.90;99.90
48686;DHT22;34485;51.536;3.816;2022-10-31T16:35:37;14.90;99.90
48686;DHT22;34485;51.536;3.816;2022-10-31T16:38:03;14.80;99.90
48686;DHT22;34485;51.536;3.816;2022-10-31T16:40:30;14.80;99.90
48686;DHT22;34485;51.536;3.816;2022-10-31T16:42:58;14.80;99.90
48686;DHT22;34485;51.536;3.816;2022-10-31T16:45:26;14.70;99.90
48686;DHT22;34485;51.536;3.816;2022-10-31T16:47:53;14.60;99.90
48686;DHT22;34485;51.536;3.816;2022-10-31T16:50:24;14.60;99.90
48686;DHT22;34485;51.536;3.816;2022-10-31T16:52:50;14.60;99.90
48686;DHT22;34485;51.536;3.816;2022-10-31T16:55:17;14.60;99.90
48686;DHT22;34485;51.536;3.816;2022-10-31T16:57:47;14.60;99.90
48686;DHT22;34485;51.536;3.816;2022-10-31T17:00:19;14.60;99.90
48686;DHT22;34485;51.536;3.816;2022-10-31T17:02:47;14.50;99.90
48686;DHT22;34485;51.536;3.816;2022-10-31T17:05:16;14.50;99.90
48686;DHT22;34485;51.536;3.816;2022-10-31T17:07:42;14.40;99.90
48686;DHT22;34485;51.536;3.816;2022-10-31T17:10:09;14.50;99.90
48686;DHT22;34485;51.536;3.816;2022-10-31T17:12:36;14.50;99.90
48686;DHT22;34485;51.536;3.816;2022-10-31T17:15:03;14.50;99.90
48686;DHT22;34485;51.536;3.816;2022-10-31T17:17:30;14.50;99.90
48686;DHT22;34485;51.536;3.816;2022-10-31T17:19:55;14.50;99.90
48686;DHT22;34485;51.536;3.816;2022-10-31T17:22:21;14.50;99.90
48686;DHT22;34485;51.536;3.816;2022-10-31T17:24:47;14.50;99.90
48686;DHT22;34485;51.536;3.816;2022-10-31T17:27:12;14.40;99.90
48686;DHT22;34485;51.536;3.816;2022-10-31T17:29:38;14.40;99.90
48686;DHT22;34485;51.536;3.816;2022-10-31T17:32:03;14.50;99.90
48686;DHT22;34485;51.536;3.816;2022-10-31T17:34:29;14.50;99.90
48686;DHT22;34485;51.536;3.816;2022-10-31T17:36:55;14.40;99.90
48686;DHT22;34485;51.536;3.816;2022-10-31T17:39:21;14.50;99.90
48686;DHT22;34485;51.536;3.816;2022-10-31T17:41:50;14.50;99.90
48686;DHT22;34485;51.536;3.816;2022-10-31T17:44:16;14.60;99.90
48686;DHT22;34485;51.536;3.816;2022-10-31T17:46:42;14.60;99.90
48686;DHT22;34485;51.536;3.816;2022-10-31T17:49:10;14.60;99.90
48686;DHT22;34485;51.536;3.816;2022-10-31T17:51:36;14.60;99.90
48686;DHT22;34485;51.536;3.816;2022-10-31T17:54:02;14.60;99.90
48686;DHT22;34485;51.536;3.816;2022-10-31T17:56:30;14.60;99.90
48686;DHT22;34485;51.536;3.816;2022-10-31T17:58:55;14.60;99.90
48686;DHT22;34485;51.536;3.816;2022-10-31T18:01:22;14.60;99.90
48686;DHT22;34485;51.536;3.816;2022-10-31T18:03:48;14.60;99.90
48686;DHT22;34485;51.536;3.816;2022-10-31T18:06:14;14.60;99.90
48686;DHT22;34485;51.536;3.816;2022-10-31T18:08:41;14.60;99.90